Ashton, ID (83420)

8:45 PM MDT on August 04, 2015 (GMT -0600)
ComstockRD | | Change Station
CLOSE
Current Station
Personal Weather Station
Location: Ashton, ID
Elevation: 5260 ft
Nearby Weather Stations
Active Advisory: Fire Weather Warning

Elev 5260 ft 44.07 °N, 111.45 °W | Updated 26 seconds ago

Partly Cloudy
Partly Cloudy
63.5 °F
Feels Like 63.5 °F
N
1.0
Wind Variable Wind from ENE
Gusts 3.0 mph

Today
High -- | Low -- °F
--% Chance of Precip.
Yesterday
High -- | Low -- °F
Precip. -- in
6:16 AM 8:45 PM
Waning Gibbous, 72% visible
Pressure 29.96 in
Visibility 10.0 miles
Clouds Scattered Clouds 10000 ft
Dew Point 49 °F
Humidity 59%
Rainfall 0.05 in
Snow Depth Not available.
UV 0 out of 12
Pollen 4.60 out of 12
Air Quality Not available.
Flu Activity Not available.
METAR KDIJ 050156Z AUTO 00000KT 10SM SCT100 18/12 A3018 RMK AO2 T01830116 SLP143 $

More Conditions Fewer Conditions

Pressure 29.96 in
Visibility 10.0 miles
Clouds Scattered Clouds 10000 ft
Dew Point 49 °F
Humidity 59%
Rainfall 0.05 in
Snow Depth Not available.
UV 0 out of 12
Pollen 4.60 out of 12
Air Quality Not available.
Flu Activity Not available.
METAR KDIJ 050156Z AUTO 00000KT 10SM SCT100 18/12 A3018 RMK AO2 T01830116 SLP143 $

More Conditions Fewer Conditions

10-Day Weather Forecast

×

Almanac

Astronomy

Aug. 04, 2015 Rise Set
Actual Time
Civil Twilight
Nautical Twilight
Astronomical Twilight
Moon
Length of Visible Light
Length of Day
Tomorrow will be .
, % of the Moon is Illuminated

Today's Extremes

State Highs State Lows

Community

WunderPhotos

Upload Photos

1,844,089 photos uploaded!

WunderBlogs® & News

Nearby

Air Quality

  Air Quality AQ Index Pollutant
Not available.

Snow Depth

Station Depth Elevation

Earthquake Activity

City Distance Mag. Time & Date
Minimum magnitude displayed is 2.5.

Coastal Water Temperatures

Place Temperature

Stations

Nearby Weather Stations

Station Location Temp. Windchill Dew Point Humidity Wind Precip. Elev Updated Type
                   
Fire Weather Warning
Statement as of 1:07 PM MDT on August 04, 2015

... Red flag warning in effect from 9 am to 9 PM MDT Wednesday for
thunderstorms and gusty winds for southeast Idaho fire weather
zones 410 and 413 below 5000ft...

The National Weather Service in Pocatello has issued a red flag
warning... which is in effect from 9 am to 9 PM MDT Wednesday.

* Affected area... fire weather zones 410 and 413 below 5000ft.

* Wind... gusts to around 50mph with thunderstorms.

* Thunderstorms... scattered or greater coverage from late
morning Wednesday through the evening hours.

* Impacts... any fires that develop will likely spread rapidly.
Outdoor burning is not recommended.

Precautionary/preparedness actions...

A red flag warning means that critical fire weather conditions
are either occurring now... or will shortly. Fires may experience
rapid rates of growth. Please advise the appropriate officials or
fire crews in the field of the red flag warning for portions of
southeast Idaho.